sensor_id;sensor_type;location;lat;lon;timestamp;temperature;humidity
38568;DHT22;24338;48.280;10.970;2023-04-28T00:01:40;7.40;99.90
38568;DHT22;24338;48.280;10.970;2023-04-28T00:04:07;7.40;99.90
38568;DHT22;24338;48.280;10.970;2023-04-28T00:06:34;7.30;99.90
38568;DHT22;24338;48.280;10.970;2023-04-28T00:09:02;7.40;99.90
38568;DHT22;24338;48.280;10.970;2023-04-28T00:11:29;7.40;99.90
38568;DHT22;24338;48.280;10.970;2023-04-28T00:13:56;7.40;99.90
38568;DHT22;24338;48.280;10.970;2023-04-28T00:16:23;7.30;99.90
38568;DHT22;24338;48.280;10.970;2023-04-28T00:18:50;7.30;99.90
38568;DHT22;24338;48.280;10.970;2023-04-28T00:21:17;7.30;99.90
38568;DHT22;24338;48.280;10.970;2023-04-28T00:23:44;7.30;99.90
38568;DHT22;24338;48.280;10.970;2023-04-28T00:26:11;7.40;99.90
38568;DHT22;24338;48.280;10.970;2023-04-28T00:28:38;7.40;99.90
38568;DHT22;24338;48.280;10.970;2023-04-28T00:31:12;7.40;99.90
38568;DHT22;24338;48.280;10.970;2023-04-28T00:33:40;7.40;99.90
38568;DHT22;24338;48.280;10.970;2023-04-28T00:36:08;7.40;99.90
38568;DHT22;24338;48.280;10.970;2023-04-28T00:38:35;7.40;99.90
38568;DHT22;24338;48.280;10.970;2023-04-28T00:41:02;7.40;99.90
38568;DHT22;24338;48.280;10.970;2023-04-28T00:43:29;7.40;99.90
38568;DHT22;24338;48.280;10.970;2023-04-28T00:45:56;7.40;99.90
38568;DHT22;24338;48.280;10.970;2023-04-28T00:48:23;7.50;99.90
38568;DHT22;24338;48.280;10.970;2023-04-28T00:50:50;7.50;99.90
38568;DHT22;24338;48.280;10.970;2023-04-28T00:53:17;7.50;99.90
38568;DHT22;24338;48.280;10.970;2023-04-28T00:55:46;7.50;99.90
38568;DHT22;24338;48.280;10.970;2023-04-28T00:58:13;7.50;99.90
38568;DHT22;24338;48.280;10.970;2023-04-28T01:00:40;7.50;99.90
38568;DHT22;24338;48.280;10.970;2023-04-28T01:03:07;7.50;99.90
38568;DHT22;24338;48.280;10.970;2023-04-28T01:05:35;7.50;99.90
38568;DHT22;24338;48.280;10.970;2023-04-28T01:08:02;7.50;99.90
38568;DHT22;24338;48.280;10.970;2023-04-28T01:10:30;7.50;99.90
38568;DHT22;24338;48.280;10.970;2023-04-28T01:12:57;7.50;99.90
38568;DHT22;24338;48.280;10.970;2023-04-28T01:15:23;7.50;99.90
38568;DHT22;24338;48.280;10.970;2023-04-28T01:17:51;7.50;99.90
38568;DHT22;24338;48.280;10.970;2023-04-28T01:20:18;7.50;99.90
38568;DHT22;24338;48.280;10.970;2023-04-28T01:22:45;7.50;99.90
38568;DHT22;24338;48.280;10.970;2023-04-28T01:25:12;7.60;99.90
38568;DHT22;24338;48.280;10.970;2023-04-28T01:27:39;7.60;99.90
38568;DHT22;24338;48.280;10.970;2023-04-28T01:30:06;7.60;99.90
38568;DHT22;24338;48.280;10.970;2023-04-28T01:32:33;7.60;99.90
38568;DHT22;24338;48.280;10.970;2023-04-28T01:35:00;7.70;99.90
38568;DHT22;24338;48.280;10.970;2023-04-28T01:37:27;7.70;99.90
38568;DHT22;24338;48.280;10.970;2023-04-28T01:39:53;7.70;99.90
38568;DHT22;24338;48.280;10.970;2023-04-28T01:42:20;7.70;99.90
38568;DHT22;24338;48.280;10.970;2023-04-28T01:44:47;7.80;99.90
38568;DHT22;24338;48.280;10.970;2023-04-28T01:47:14;7.80;99.90
38568;DHT22;24338;48.280;10.970;2023-04-28T01:49:41;7.80;99.90
38568;DHT22;24338;48.280;10.970;2023-04-28T01:52:08;7.80;99.90
38568;DHT22;24338;48.280;10.970;2023-04-28T01:54:34;7.90;99.90
38568;DHT22;24338;48.280;10.970;2023-04-28T01:57:01;7.80;99.90
38568;DHT22;24338;48.280;10.970;2023-04-28T01:59:28;7.90;99.90
38568;DHT22;24338;48.280;10.970;2023-04-28T02:01:55;7.90;99.90
38568;DHT22;24338;48.280;10.970;2023-04-28T02:04:22;7.90;99.90
38568;DHT22;24338;48.280;10.970;2023-04-28T02:06:49;7.90;99.90
38568;DHT22;24338;48.280;10.970;2023-04-28T02:09:16;7.90;99.90
38568;DHT22;24338;48.280;10.970;2023-04-28T02:11:43;8.00;99.90
38568;DHT22;24338;48.280;10.970;2023-04-28T02:14:10;8.00;99.90
38568;DHT22;24338;48.280;10.970;2023-04-28T02:16:36;8.00;99.90
38568;DHT22;24338;48.280;10.970;2023-04-28T02:19:03;8.00;99.90
38568;DHT22;24338;48.280;10.970;2023-04-28T02:21:30;8.00;99.90
38568;DHT22;24338;48.280;10.970;2023-04-28T02:23:57;8.00;99.90
38568;DHT22;24338;48.280;10.970;2023-04-28T02:26:24;8.00;99.90
38568;DHT22;24338;48.280;10.970;2023-04-28T02:28:58;8.10;99.90
38568;DHT22;24338;48.280;10.970;2023-04-28T02:31:25;8.10;99.90
38568;DHT22;24338;48.280;10.970;2023-04-28T02:33:52;8.10;99.90
38568;DHT22;24338;48.280;10.970;2023-04-28T02:36:19;8.10;99.90
38568;DHT22;24338;48.280;10.970;2023-04-28T02:38:46;8.10;99.90
38568;DHT22;24338;48.280;10.970;2023-04-28T02:41:13;8.20;99.90
38568;DHT22;24338;48.280;10.970;2023-04-28T02:43:40;8.20;99.90
38568;DHT22;24338;48.280;10.970;2023-04-28T02:46:07;8.20;99.90
38568;DHT22;24338;48.280;10.970;2023-04-28T02:48:34;8.30;99.90
38568;DHT22;24338;48.280;10.970;2023-04-28T02:51:03;8.30;99.90
38568;DHT22;24338;48.280;10.970;2023-04-28T02:53:29;8.30;99.90
38568;DHT22;24338;48.280;10.970;2023-04-28T02:55:56;8.40;99.90
38568;DHT22;24338;48.280;10.970;2023-04-28T02:58:23;8.40;99.90
38568;DHT22;24338;48.280;10.970;2023-04-28T03:00:50;8.50;99.90
38568;DHT22;24338;48.280;10.970;2023-04-28T03:03:17;8.50;99.90
38568;DHT22;24338;48.280;10.970;2023-04-28T03:05:44;8.50;99.90
38568;DHT22;24338;48.280;10.970;2023-04-28T03:08:11;8.50;99.90
38568;DHT22;24338;48.280;10.970;2023-04-28T03:10:38;8.50;99.90
38568;DHT22;24338;48.280;10.970;2023-04-28T03:13:08;8.50;99.90
38568;DHT22;24338;48.280;10.970;2023-04-28T03:15:34;8.50;99.90
38568;DHT22;24338;48.280;10.970;2023-04-28T03:18:01;8.50;99.90
38568;DHT22;24338;48.280;10.970;2023-04-28T03:20:28;8.50;99.90
38568;DHT22;24338;48.280;10.970;2023-04-28T03:22:55;8.40;99.90
38568;DHT22;24338;48.280;10.970;2023-04-28T03:25:21;8.40;99.90
38568;DHT22;24338;48.280;10.970;2023-04-28T03:27:48;8.40;99.90
38568;DHT22;24338;48.280;10.970;2023-04-28T03:30:15;8.40;99.90
38568;DHT22;24338;48.280;10.970;2023-04-28T03:32:42;8.40;99.90
38568;DHT22;24338;48.280;10.970;2023-04-28T03:35:09;8.40;99.90
38568;DHT22;24338;48.280;10.970;2023-04-28T03:37:36;8.40;99.90
38568;DHT22;24338;48.280;10.970;2023-04-28T03:40:03;8.30;99.90
38568;DHT22;24338;48.280;10.970;2023-04-28T03:42:30;8.40;99.90
38568;DHT22;24338;48.280;10.970;2023-04-28T03:44:57;8.30;99.90
38568;DHT22;24338;48.280;10.970;2023-04-28T03:47:23;8.30;99.90
38568;DHT22;24338;48.280;10.970;2023-04-28T03:49:50;8.30;99.90
38568;DHT22;24338;48.280;10.970;2023-04-28T03:52:17;8.30;99.90
38568;DHT22;24338;48.280;10.970;2023-04-28T03:54:44;8.30;99.90
38568;DHT22;24338;48.280;10.970;2023-04-28T03:57:11;8.30;99.90
38568;DHT22;24338;48.280;10.970;2023-04-28T03:59:38;8.30;99.90
38568;DHT22;24338;48.280;10.970;2023-04-28T04:02:05;8.30;99.90
38568;DHT22;24338;48.280;10.970;2023-04-28T04:04:32;8.40;99.90
38568;DHT22;24338;48.280;10.970;2023-04-28T04:06:59;8.40;99.90
38568;DHT22;24338;48.280;10.970;2023-04-28T04:09:27;8.40;99.90
38568;DHT22;24338;48.280;10.970;2023-04-28T04:11:54;8.50;99.90
38568;DHT22;24338;48.280;10.970;2023-04-28T04:14:20;8.50;99.90
38568;DHT22;24338;48.280;10.970;2023-04-28T04:16:47;8.50;99.90
38568;DHT22;24338;48.280;10.970;2023-04-28T04:19:14;8.50;99.90
38568;DHT22;24338;48.280;10.970;2023-04-28T04:21:41;8.50;99.90
38568;DHT22;24338;48.280;10.970;2023-04-28T04:24:08;8.60;99.90
38568;DHT22;24338;48.280;10.970;2023-04-28T04:26:35;8.60;99.90
38568;DHT22;24338;48.280;10.970;2023-04-28T04:29:02;8.60;99.90
38568;DHT22;24338;48.280;10.970;2023-04-28T04:31:29;8.60;99.90
38568;DHT22;24338;48.280;10.970;2023-04-28T04:33:55;8.70;99.90
38568;DHT22;24338;48.280;10.970;2023-04-28T04:36:22;8.70;99.90
38568;DHT22;24338;48.280;10.970;2023-04-28T04:38:49;8.80;99.90
38568;DHT22;24338;48.280;10.970;2023-04-28T04:41:19;8.80;99.90
38568;DHT22;24338;48.280;10.970;2023-04-28T04:43:49;8.80;99.90
38568;DHT22;24338;48.280;10.970;2023-04-28T04:46:16;8.90;99.90
38568;DHT22;24338;48.280;10.970;2023-04-28T04:48:43;8.90;99.90
38568;DHT22;24338;48.280;10.970;2023-04-28T04:51:10;8.90;99.90
38568;DHT22;24338;48.280;10.970;2023-04-28T04:53:36;8.90;99.90
38568;DHT22;24338;48.280;10.970;2023-04-28T04:56:04;8.90;99.90
38568;DHT22;24338;48.280;10.970;2023-04-28T04:58:30;9.00;99.90
38568;DHT22;24338;48.280;10.970;2023-04-28T05:00:58;9.00;99.90
38568;DHT22;24338;48.280;10.970;2023-04-28T05:03:25;9.00;99.90
38568;DHT22;24338;48.280;10.970;2023-04-28T05:05:52;9.00;99.90
38568;DHT22;24338;48.280;10.970;2023-04-28T05:08:19;9.00;99.90
38568;DHT22;24338;48.280;10.970;2023-04-28T05:10:46;9.00;99.90
38568;DHT22;24338;48.280;10.970;2023-04-28T05:13:12;9.00;99.90
38568;DHT22;24338;48.280;10.970;2023-04-28T05:15:39;9.00;99.90
38568;DHT22;24338;48.280;10.970;2023-04-28T05:18:06;9.00;99.90
38568;DHT22;24338;48.280;10.970;2023-04-28T05:20:36;9.00;99.90
38568;DHT22;24338;48.280;10.970;2023-04-28T05:23:03;9.10;99.90
38568;DHT22;24338;48.280;10.970;2023-04-28T05:25:30;9.10;99.90
38568;DHT22;24338;48.280;10.970;2023-04-28T05:27:57;9.10;99.90
38568;DHT22;24338;48.280;10.970;2023-04-28T05:30:24;9.10;99.90
38568;DHT22;24338;48.280;10.970;2023-04-28T05:32:52;9.10;99.90
38568;DHT22;24338;48.280;10.970;2023-04-28T05:35:19;9.10;99.90
38568;DHT22;24338;48.280;10.970;2023-04-28T05:37:46;9.10;99.90
38568;DHT22;24338;48.280;10.970;2023-04-28T05:40:13;9.10;99.90
38568;DHT22;24338;48.280;10.970;2023-04-28T05:42:40;9.20;99.90
38568;DHT22;24338;48.280;10.970;2023-04-28T05:45:07;9.20;99.90
38568;DHT22;24338;48.280;10.970;2023-04-28T05:47:34;9.20;99.90
38568;DHT22;24338;48.280;10.970;2023-04-28T05:50:01;9.20;99.90
38568;DHT22;24338;48.280;10.970;2023-04-28T05:52:28;9.20;99.90
38568;DHT22;24338;48.280;10.970;2023-04-28T05:54:55;9.20;99.90
38568;DHT22;24338;48.280;10.970;2023-04-28T05:57:22;9.20;99.90
38568;DHT22;24338;48.280;10.970;2023-04-28T05:59:49;9.30;99.90
38568;DHT22;24338;48.280;10.970;2023-04-28T06:02:16;9.40;99.90
38568;DHT22;24338;48.280;10.970;2023-04-28T06:04:44;9.40;99.90
38568;DHT22;24338;48.280;10.970;2023-04-28T06:07:11;9.50;99.90
38568;DHT22;24338;48.280;10.970;2023-04-28T06:09:38;9.60;99.90
38568;DHT22;24338;48.280;10.970;2023-04-28T06:12:06;9.70;99.90
38568;DHT22;24338;48.280;10.970;2023-04-28T06:14:32;9.80;99.90
38568;DHT22;24338;48.280;10.970;2023-04-28T06:17:04;9.90;99.90
38568;DHT22;24338;48.280;10.970;2023-04-28T06:19:31;10.00;99.90
38568;DHT22;24338;48.280;10.970;2023-04-28T06:21:58;10.10;99.90
38568;DHT22;24338;48.280;10.970;2023-04-28T06:24:25;10.20;99.90
38568;DHT22;24338;48.280;10.970;2023-04-28T06:26:52;10.30;99.90
38568;DHT22;24338;48.280;10.970;2023-04-28T06:29:19;10.40;99.90
38568;DHT22;24338;48.280;10.970;2023-04-28T06:31:46;10.60;99.90
38568;DHT22;24338;48.280;10.970;2023-04-28T06:34:13;10.70;99.90
38568;DHT22;24338;48.280;10.970;2023-04-28T06:36:40;10.80;99.90
38568;DHT22;24338;48.280;10.970;2023-04-28T06:39:07;10.90;99.90
38568;DHT22;24338;48.280;10.970;2023-04-28T06:41:33;11.00;99.90
38568;DHT22;24338;48.280;10.970;2023-04-28T06:44:01;11.00;99.90
38568;DHT22;24338;48.280;10.970;2023-04-28T06:46:27;11.10;99.90
38568;DHT22;24338;48.280;10.970;2023-04-28T06:48:54;11.20;99.90
38568;DHT22;24338;48.280;10.970;2023-04-28T06:51:21;11.30;99.90
38568;DHT22;24338;48.280;10.970;2023-04-28T06:53:52;11.30;99.90
38568;DHT22;24338;48.280;10.970;2023-04-28T06:56:19;11.40;99.90
38568;DHT22;24338;48.280;10.970;2023-04-28T06:58:45;11.40;99.90
38568;DHT22;24338;48.280;10.970;2023-04-28T07:01:13;11.40;99.90
38568;DHT22;24338;48.280;10.970;2023-04-28T07:03:40;11.40;99.90
38568;DHT22;24338;48.280;10.970;2023-04-28T07:06:07;11.40;99.90
38568;DHT22;24338;48.280;10.970;2023-04-28T07:08:34;11.40;99.90
38568;DHT22;24338;48.280;10.970;2023-04-28T07:11:02;11.30;99.90
38568;DHT22;24338;48.280;10.970;2023-04-28T07:13:32;11.30;99.90
38568;DHT22;24338;48.280;10.970;2023-04-28T07:16:02;11.30;99.90
38568;DHT22;24338;48.280;10.970;2023-04-28T07:18:29;11.20;99.90
38568;DHT22;24338;48.280;10.970;2023-04-28T07:20:56;11.30;99.90
38568;DHT22;24338;48.280;10.970;2023-04-28T07:23:23;11.30;99.90
38568;DHT22;24338;48.280;10.970;2023-04-28T07:25:49;11.30;99.90
38568;DHT22;24338;48.280;10.970;2023-04-28T07:28:16;11.20;99.90
38568;DHT22;24338;48.280;10.970;2023-04-28T07:30:43;11.20;99.90
38568;DHT22;24338;48.280;10.970;2023-04-28T07:33:10;11.20;99.90
38568;DHT22;24338;48.280;10.970;2023-04-28T07:35:37;11.20;99.90
38568;DHT22;24338;48.280;10.970;2023-04-28T07:38:04;11.20;99.90
38568;DHT22;24338;48.280;10.970;2023-04-28T07:40:31;11.20;99.90
38568;DHT22;24338;48.280;10.970;2023-04-28T07:42:58;11.20;99.90
38568;DHT22;24338;48.280;10.970;2023-04-28T07:45:25;11.20;99.90
38568;DHT22;24338;48.280;10.970;2023-04-28T07:47:52;11.20;99.90
38568;DHT22;24338;48.280;10.970;2023-04-28T07:50:19;11.20;99.90
38568;DHT22;24338;48.280;10.970;2023-04-28T07:52:46;11.20;99.90
38568;DHT22;24338;48.280;10.970;2023-04-28T07:55:13;11.20;99.90
38568;DHT22;24338;48.280;10.970;2023-04-28T07:57:40;11.20;99.90
38568;DHT22;24338;48.280;10.970;2023-04-28T08:00:08;11.20;99.90
38568;DHT22;24338;48.280;10.970;2023-04-28T08:02:35;11.20;99.90
38568;DHT22;24338;48.280;10.970;2023-04-28T08:05:02;11.30;99.90
38568;DHT22;24338;48.280;10.970;2023-04-28T08:07:29;11.30;99.90
38568;DHT22;24338;48.280;10.970;2023-04-28T08:09:56;11.20;99.90
38568;DHT22;24338;48.280;10.970;2023-04-28T08:12:23;11.20;99.90
38568;DHT22;24338;48.280;10.970;2023-04-28T08:14:50;11.20;99.90
38568;DHT22;24338;48.280;10.970;2023-04-28T08:17:17;11.20;99.90
38568;DHT22;24338;48.280;10.970;2023-04-28T08:19:44;11.20;99.90
38568;DHT22;24338;48.280;10.970;2023-04-28T08:22:11;11.30;99.90
38568;DHT22;24338;48.280;10.970;2023-04-28T08:24:41;11.30;99.90
38568;DHT22;24338;48.280;10.970;2023-04-28T08:27:08;11.30;99.90
38568;DHT22;24338;48.280;10.970;2023-04-28T08:29:35;11.40;99.90
38568;DHT22;24338;48.280;10.970;2023-04-28T08:32:01;11.40;99.90
38568;DHT22;24338;48.280;10.970;2023-04-28T08:34:28;11.50;99.90
38568;DHT22;24338;48.280;10.970;2023-04-28T08:36:55;11.50;99.90
38568;DHT22;24338;48.280;10.970;2023-04-28T08:39:22;11.50;99.90
38568;DHT22;24338;48.280;10.970;2023-04-28T08:41:49;11.60;99.90
38568;DHT22;24338;48.280;10.970;2023-04-28T08:44:16;11.70;99.90
38568;DHT22;24338;48.280;10.970;2023-04-28T08:46:45;11.70;99.90
38568;DHT22;24338;48.280;10.970;2023-04-28T08:49:16;11.70;99.90
38568;DHT22;24338;48.280;10.970;2023-04-28T08:51:58;11.80;99.90
38568;DHT22;24338;48.280;10.970;2023-04-28T08:54:26;11.80;99.90
38568;DHT22;24338;48.280;10.970;2023-04-28T08:56:56;11.80;99.90
38568;DHT22;24338;48.280;10.970;2023-04-28T08:59:23;11.90;99.90
38568;DHT22;24338;48.280;10.970;2023-04-28T09:01:50;11.80;99.90
38568;DHT22;24338;48.280;10.970;2023-04-28T09:04:18;11.80;99.90
38568;DHT22;24338;48.280;10.970;2023-04-28T09:06:46;11.80;99.90
38568;DHT22;24338;48.280;10.970;2023-04-28T09:09:29;11.80;99.90
38568;DHT22;24338;48.280;10.970;2023-04-28T09:12:01;11.70;99.90
38568;DHT22;24338;48.280;10.970;2023-04-28T09:14:34;11.70;99.90
38568;DHT22;24338;48.280;10.970;2023-04-28T09:17:12;11.70;99.90
38568;DHT22;24338;48.280;10.970;2023-04-28T09:19:39;11.70;99.90
38568;DHT22;24338;48.280;10.970;2023-04-28T09:22:09;11.80;99.90
38568;DHT22;24338;48.280;10.970;2023-04-28T09:24:50;11.70;99.90
38568;DHT22;24338;48.280;10.970;2023-04-28T09:27:26;11.70;99.90
38568;DHT22;24338;48.280;10.970;2023-04-28T09:29:53;11.70;99.90
38568;DHT22;24338;48.280;10.970;2023-04-28T09:32:21;11.70;99.90
38568;DHT22;24338;48.280;10.970;2023-04-28T09:34:50;11.70;99.90
38568;DHT22;24338;48.280;10.970;2023-04-28T09:37:22;11.70;99.90
38568;DHT22;24338;48.280;10.970;2023-04-28T09:39:51;11.70;99.90
38568;DHT22;24338;48.280;10.970;2023-04-28T09:42:39;11.70;99.90
38568;DHT22;24338;48.280;10.970;2023-04-28T09:45:10;11.70;99.90
38568;DHT22;24338;48.280;10.970;2023-04-28T09:47:45;11.70;99.90
38568;DHT22;24338;48.280;10.970;2023-04-28T09:50:15;11.70;99.90
38568;DHT22;24338;48.280;10.970;2023-04-28T09:52:45;11.60;99.90
38568;DHT22;24338;48.280;10.970;2023-04-28T09:55:19;11.70;99.90
38568;DHT22;24338;48.280;10.970;2023-04-28T09:57:47;11.70;99.90
38568;DHT22;24338;48.280;10.970;2023-04-28T10:00:16;11.80;99.90
38568;DHT22;24338;48.280;10.970;2023-04-28T10:02:44;11.80;99.90
38568;DHT22;24338;48.280;10.970;2023-04-28T10:05:11;11.80;99.90
38568;DHT22;24338;48.280;10.970;2023-04-28T10:07:39;11.90;99.90
38568;DHT22;24338;48.280;10.970;2023-04-28T10:10:07;11.90;99.90
38568;DHT22;24338;48.280;10.970;2023-04-28T10:12:34;11.90;99.90
38568;DHT22;24338;48.280;10.970;2023-04-28T10:15:05;11.90;99.90
38568;DHT22;24338;48.280;10.970;2023-04-28T10:17:33;11.90;99.90
38568;DHT22;24338;48.280;10.970;2023-04-28T10:20:02;11.90;99.90
38568;DHT22;24338;48.280;10.970;2023-04-28T10:27:45;11.90;99.90
38568;DHT22;24338;48.280;10.970;2023-04-28T10:30:20;11.90;99.90
38568;DHT22;24338;48.280;10.970;2023-04-28T10:35:44;11.90;99.90
38568;DHT22;24338;48.280;10.970;2023-04-28T10:38:20;12.00;99.90
38568;DHT22;24338;48.280;10.970;2023-04-28T10:40:49;12.00;99.90
38568;DHT22;24338;48.280;10.970;2023-04-28T10:43:42;12.00;99.90
38568;DHT22;24338;48.280;10.970;2023-04-28T10:46:09;12.00;99.90
38568;DHT22;24338;48.280;10.970;2023-04-28T10:48:56;11.90;99.90
38568;DHT22;24338;48.280;10.970;2023-04-28T10:51:26;12.00;99.90
38568;DHT22;24338;48.280;10.970;2023-04-28T10:56:30;12.00;99.90
38568;DHT22;24338;48.280;10.970;2023-04-28T10:58:57;12.00;99.90
38568;DHT22;24338;48.280;10.970;2023-04-28T11:01:28;12.00;99.90
38568;DHT22;24338;48.280;10.970;2023-04-28T11:04:07;12.00;99.90
38568;DHT22;24338;48.280;10.970;2023-04-28T11:06:44;12.10;99.90
38568;DHT22;24338;48.280;10.970;2023-04-28T11:17:14;12.50;99.90
38568;DHT22;24338;48.280;10.970;2023-04-28T11:19:45;12.50;99.90
38568;DHT22;24338;48.280;10.970;2023-04-28T11:22:18;12.50;99.90
38568;DHT22;24338;48.280;10.970;2023-04-28T11:24:55;12.60;99.90
38568;DHT22;24338;48.280;10.970;2023-04-28T11:27:30;12.60;99.90
38568;DHT22;24338;48.280;10.970;2023-04-28T11:29:58;12.60;99.90
38568;DHT22;24338;48.280;10.970;2023-04-28T11:32:28;12.60;99.90
38568;DHT22;24338;48.280;10.970;2023-04-28T11:34:55;12.60;99.90
38568;DHT22;24338;48.280;10.970;2023-04-28T11:37:22;12.60;99.90
38568;DHT22;24338;48.280;10.970;2023-04-28T11:39:50;12.60;99.90
38568;DHT22;24338;48.280;10.970;2023-04-28T11:42:17;12.60;99.90
38568;DHT22;24338;48.280;10.970;2023-04-28T11:44:51;12.60;99.90
38568;DHT22;24338;48.280;10.970;2023-04-28T11:47:32;12.60;99.90
38568;DHT22;24338;48.280;10.970;2023-04-28T11:50:00;12.70;99.90
38568;DHT22;24338;48.280;10.970;2023-04-28T11:52:27;12.70;99.90
38568;DHT22;24338;48.280;10.970;2023-04-28T11:54:58;12.80;99.90
38568;DHT22;24338;48.280;10.970;2023-04-28T11:57:26;12.80;99.90
38568;DHT22;24338;48.280;10.970;2023-04-28T12:00:10;12.90;99.90
38568;DHT22;24338;48.280;10.970;2023-04-28T12:02:37;13.00;99.90
38568;DHT22;24338;48.280;10.970;2023-04-28T12:05:05;13.10;99.90
38568;DHT22;24338;48.280;10.970;2023-04-28T12:07:43;13.10;99.90
38568;DHT22;24338;48.280;10.970;2023-04-28T12:10:14;13.30;99.90
38568;DHT22;24338;48.280;10.970;2023-04-28T12:12:44;13.40;99.90
38568;DHT22;24338;48.280;10.970;2023-04-28T12:15:19;13.50;99.90
38568;DHT22;24338;48.280;10.970;2023-04-28T12:17:47;13.60;99.90
38568;DHT22;24338;48.280;10.970;2023-04-28T12:22:50;13.80;99.90
38568;DHT22;24338;48.280;10.970;2023-04-28T12:25:18;14.30;99.90
38568;DHT22;24338;48.280;10.970;2023-04-28T12:28:03;14.80;99.90
38568;DHT22;24338;48.280;10.970;2023-04-28T12:30:32;15.10;99.90
38568;DHT22;24338;48.280;10.970;2023-04-28T12:32:59;15.30;99.90
38568;DHT22;24338;48.280;10.970;2023-04-28T12:35:28;15.20;99.90
38568;DHT22;24338;48.280;10.970;2023-04-28T12:37:58;15.00;99.90
38568;DHT22;24338;48.280;10.970;2023-04-28T12:40:25;14.90;99.90
38568;DHT22;24338;48.280;10.970;2023-04-28T12:42:52;14.60;99.90
38568;DHT22;24338;48.280;10.970;2023-04-28T12:45:19;14.40;99.90
38568;DHT22;24338;48.280;10.970;2023-04-28T12:47:46;14.30;99.90
38568;DHT22;24338;48.280;10.970;2023-04-28T12:50:14;14.30;99.90
38568;DHT22;24338;48.280;10.970;2023-04-28T12:52:40;14.20;99.90
38568;DHT22;24338;48.280;10.970;2023-04-28T12:55:07;14.20;99.90
38568;DHT22;24338;48.280;10.970;2023-04-28T12:57:34;14.20;99.90
38568;DHT22;24338;48.280;10.970;2023-04-28T13:00:05;14.30;99.90
38568;DHT22;24338;48.280;10.970;2023-04-28T13:02:33;14.40;99.90
38568;DHT22;24338;48.280;10.970;2023-04-28T13:05:00;14.40;99.90
38568;DHT22;24338;48.280;10.970;2023-04-28T13:07:27;14.50;99.90
38568;DHT22;24338;48.280;10.970;2023-04-28T13:09:56;14.40;99.90
38568;DHT22;24338;48.280;10.970;2023-04-28T13:12:24;14.30;99.90
38568;DHT22;24338;48.280;10.970;2023-04-28T13:14:51;14.20;99.90
38568;DHT22;24338;48.280;10.970;2023-04-28T13:17:17;14.20;99.90
38568;DHT22;24338;48.280;10.970;2023-04-28T13:19:44;14.40;99.90
38568;DHT22;24338;48.280;10.970;2023-04-28T13:22:13;14.60;99.90
38568;DHT22;24338;48.280;10.970;2023-04-28T13:24:41;14.90;99.90
38568;DHT22;24338;48.280;10.970;2023-04-28T13:27:09;15.10;99.90
38568;DHT22;24338;48.280;10.970;2023-04-28T13:29:36;15.20;99.90
38568;DHT22;24338;48.280;10.970;2023-04-28T13:32:05;15.10;99.90
38568;DHT22;24338;48.280;10.970;2023-04-28T13:34:32;15.10;99.90
38568;DHT22;24338;48.280;10.970;2023-04-28T13:36:59;15.20;99.90
38568;DHT22;24338;48.280;10.970;2023-04-28T13:39:26;15.20;99.90
38568;DHT22;24338;48.280;10.970;2023-04-28T13:41:53;15.10;99.90
38568;DHT22;24338;48.280;10.970;2023-04-28T13:44:20;15.20;99.90
38568;DHT22;24338;48.280;10.970;2023-04-28T13:46:49;15.00;99.90
38568;DHT22;24338;48.280;10.970;2023-04-28T13:49:18;14.90;99.90
38568;DHT22;24338;48.280;10.970;2023-04-28T13:51:48;14.80;99.90
38568;DHT22;24338;48.280;10.970;2023-04-28T13:54:15;14.80;99.90
38568;DHT22;24338;48.280;10.970;2023-04-28T13:56:41;14.70;99.90
38568;DHT22;24338;48.280;10.970;2023-04-28T13:59:12;14.70;99.90
38568;DHT22;24338;48.280;10.970;2023-04-28T14:01:40;14.70;99.90
38568;DHT22;24338;48.280;10.970;2023-04-28T14:04:07;14.60;99.90
38568;DHT22;24338;48.280;10.970;2023-04-28T14:06:35;14.50;99.90
38568;DHT22;24338;48.280;10.970;2023-04-28T14:09:03;14.50;99.90
38568;DHT22;24338;48.280;10.970;2023-04-28T14:11:30;14.40;99.90
38568;DHT22;24338;48.280;10.970;2023-04-28T14:13:58;14.40;99.90
38568;DHT22;24338;48.280;10.970;2023-04-28T14:16:27;14.50;99.90
38568;DHT22;24338;48.280;10.970;2023-04-28T14:18:54;14.50;99.90
38568;DHT22;24338;48.280;10.970;2023-04-28T14:21:21;14.40;99.90
38568;DHT22;24338;48.280;10.970;2023-04-28T14:23:48;14.40;99.90
38568;DHT22;24338;48.280;10.970;2023-04-28T14:26:15;14.30;99.90
38568;DHT22;24338;48.280;10.970;2023-04-28T14:28:41;14.30;99.90
38568;DHT22;24338;48.280;10.970;2023-04-28T14:31:08;14.30;99.90
38568;DHT22;24338;48.280;10.970;2023-04-28T14:33:35;14.20;99.90
38568;DHT22;24338;48.280;10.970;2023-04-28T14:36:02;14.20;99.90
38568;DHT22;24338;48.280;10.970;2023-04-28T14:38:29;14.20;99.90
38568;DHT22;24338;48.280;10.970;2023-04-28T14:40:56;14.20;99.90
38568;DHT22;24338;48.280;10.970;2023-04-28T14:43:23;14.20;99.90
38568;DHT22;24338;48.280;10.970;2023-04-28T14:45:50;14.20;99.90
38568;DHT22;24338;48.280;10.970;2023-04-28T14:48:18;14.10;99.90
38568;DHT22;24338;48.280;10.970;2023-04-28T14:50:45;14.20;99.90
38568;DHT22;24338;48.280;10.970;2023-04-28T14:53:13;14.10;99.90
38568;DHT22;24338;48.280;10.970;2023-04-28T14:55:40;14.10;99.90
38568;DHT22;24338;48.280;10.970;2023-04-28T14:58:06;14.00;99.90
38568;DHT22;24338;48.280;10.970;2023-04-28T15:00:34;14.10;99.90
38568;DHT22;24338;48.280;10.970;2023-04-28T15:03:00;14.00;99.90
38568;DHT22;24338;48.280;10.970;2023-04-28T15:05:27;14.00;99.90
38568;DHT22;24338;48.280;10.970;2023-04-28T15:07:54;14.00;99.90
38568;DHT22;24338;48.280;10.970;2023-04-28T15:10:21;14.10;99.90
38568;DHT22;24338;48.280;10.970;2023-04-28T15:12:48;14.10;99.90
38568;DHT22;24338;48.280;10.970;2023-04-28T15:15:15;14.10;99.90
38568;DHT22;24338;48.280;10.970;2023-04-28T15:17:44;14.10;99.90
38568;DHT22;24338;48.280;10.970;2023-04-28T15:20:11;14.10;99.90
38568;DHT22;24338;48.280;10.970;2023-04-28T15:22:38;14.20;99.90
38568;DHT22;24338;48.280;10.970;2023-04-28T15:25:08;14.20;99.90
38568;DHT22;24338;48.280;10.970;2023-04-28T15:27:35;14.30;99.90
38568;DHT22;24338;48.280;10.970;2023-04-28T15:30:02;14.30;99.90
38568;DHT22;24338;48.280;10.970;2023-04-28T15:32:29;14.40;99.90
38568;DHT22;24338;48.280;10.970;2023-04-28T15:34:59;14.40;99.90
38568;DHT22;24338;48.280;10.970;2023-04-28T15:37:45;14.30;99.90
38568;DHT22;24338;48.280;10.970;2023-04-28T15:40:18;14.30;99.90
38568;DHT22;24338;48.280;10.970;2023-04-28T15:42:45;14.30;99.90
38568;DHT22;24338;48.280;10.970;2023-04-28T15:45:21;14.20;99.90
38568;DHT22;24338;48.280;10.970;2023-04-28T15:47:49;14.10;99.90
38568;DHT22;24338;48.280;10.970;2023-04-28T15:50:17;14.10;99.90